createdAt,value
2019-01-24T00:01:26.962Z,101001.85
2019-01-24T00:03:57.112Z,101002.36
2019-01-24T00:06:27.297Z,101003.34
2019-01-24T00:08:57.544Z,101002.63
2019-01-24T00:11:27.867Z,101004.88
2019-01-24T00:13:58.102Z,101002.89
2019-01-24T00:16:28.371Z,101003.87
2019-01-24T00:18:58.595Z,101001.78
2019-01-24T00:21:28.841Z,101006.44
2019-01-24T00:23:59.158Z,101011.26
2019-01-24T00:26:29.428Z,101011.83
2019-01-24T00:28:59.696Z,101014.56
2019-01-24T00:31:30.010Z,101023.13
2019-01-24T00:34:00.277Z,101025.08
2019-01-24T00:36:30.522Z,101020.05
2019-01-24T00:39:00.898Z,101031.70
2019-01-24T00:41:31.131Z,101030.00
2019-01-24T00:44:01.406Z,101025.85
2019-01-24T00:46:31.862Z,101022.72
2019-01-24T00:49:02.116Z,101026.22
2019-01-24T00:51:34.098Z,101027.44
2019-01-24T00:54:04.693Z,101027.34
2019-01-24T00:56:34.930Z,101023.80
2019-01-24T00:59:05.230Z,101021.23
2019-01-24T01:01:35.485Z,101034.56
2019-01-24T01:04:06.764Z,101037.60
2019-01-24T01:06:36.920Z,101042.83
2019-01-24T01:09:10.168Z,101044.52
2019-01-24T01:11:40.407Z,101046.27
2019-01-24T01:14:10.719Z,101050.59
2019-01-24T01:16:41.047Z,101054.37
2019-01-24T01:19:11.286Z,101060.08
2019-01-24T01:21:41.553Z,101056.23
2019-01-24T01:24:11.860Z,101060.78
2019-01-24T01:26:43.612Z,101068.17
2019-01-24T01:29:13.863Z,101060.85
2019-01-24T01:31:44.119Z,101062.95
2019-01-24T01:34:14.469Z,101066.39
2019-01-24T01:36:48.390Z,101071.21
2019-01-24T01:39:18.614Z,101072.90
2019-01-24T01:41:48.878Z,101074.96
2019-01-24T01:44:19.127Z,101080.09
2019-01-24T01:46:49.287Z,101082.66
2019-01-24T01:49:19.540Z,101083.94
2019-01-24T01:51:49.870Z,101079.72
2019-01-24T01:54:20.155Z,101079.62
2019-01-24T01:56:50.375Z,101081.20
2019-01-24T01:59:20.635Z,101082.39
2019-01-24T02:01:51.049Z,101079.05
2019-01-24T02:04:25.324Z,101079.62
2019-01-24T02:06:58.604Z,101081.00
2019-01-24T02:09:28.981Z,101082.28
2019-01-24T02:11:59.275Z,101083.16
2019-01-24T02:14:29.580Z,101085.22
2019-01-24T02:17:00.155Z,101077.45
2019-01-24T02:19:30.754Z,101085.05
2019-01-24T02:22:14.586Z,101082.99
2019-01-24T02:24:50.937Z,101086.73
2019-01-24T02:27:21.489Z,101094.03
2019-01-24T02:29:51.831Z,101094.84
2019-01-24T02:32:26.580Z,101097.41
2019-01-24T02:34:57.021Z,101088.42
2019-01-24T02:37:27.420Z,101096.12
2019-01-24T02:39:57.684Z,101094.03
2019-01-24T02:42:28.192Z,101089.70
2019-01-24T02:44:58.580Z,101085.05
2019-01-24T02:47:29.017Z,101085.86
2019-01-24T02:50:00.249Z,101082.39
2019-01-24T02:52:30.700Z,101085.36
2019-01-24T02:55:01.097Z,101078.94
2019-01-24T02:57:31.593Z,101080.53
2019-01-24T03:00:01.981Z,101087.45
2019-01-24T03:02:32.318Z,101084.88
2019-01-24T03:05:02.761Z,101086.94
2019-01-24T03:07:33.323Z,101083.40
2019-01-24T03:10:03.959Z,101085.89
2019-01-24T03:12:34.526Z,101081.48
2019-01-24T03:15:06.160Z,101084.04
2019-01-24T03:17:36.715Z,101083.06
2019-01-24T03:20:07.989Z,101088.19
2019-01-24T03:22:38.274Z,101092.91
2019-01-24T03:25:09.749Z,101098.04
2019-01-24T03:27:40.032Z,101105.84
2019-01-24T03:30:14.371Z,101110.05
2019-01-24T03:32:44.615Z,101109.01
2019-01-24T03:35:20.137Z,101118.16
2019-01-24T03:37:50.457Z,101119.03
2019-01-24T03:40:20.746Z,101119.03
2019-01-24T03:42:51.087Z,101124.09
2019-01-24T03:45:21.400Z,101128.81
2019-01-24T03:47:51.664Z,101127.12
2019-01-24T03:50:23.383Z,101136.20
2019-01-24T03:52:53.787Z,101132.53
2019-01-24T03:55:24.629Z,101126.83
2019-01-24T03:57:54.869Z,101131.66
2019-01-24T04:00:26.397Z,101133.41
2019-01-24T04:02:56.645Z,101134.39
2019-01-24T04:05:26.838Z,101137.16
2019-01-24T04:07:56.998Z,101137.46
2019-01-24T04:10:27.199Z,101143.37
2019-01-24T04:12:57.511Z,101146.34
2019-01-24T04:15:28.165Z,101144.95
2019-01-24T04:17:58.388Z,101153.16
2019-01-24T04:20:28.631Z,101136.27
2019-01-24T04:22:58.898Z,101151.06
2019-01-24T04:25:29.102Z,101152.45
2019-01-24T04:27:59.264Z,101152.14
2019-01-24T04:30:29.617Z,101154.30
2019-01-24T04:32:59.780Z,101155.11
2019-01-24T04:35:30.095Z,101159.67
2019-01-24T04:38:00.318Z,101162.60
2019-01-24T04:40:30.668Z,101167.43
2019-01-24T04:43:00.941Z,101163.88
2019-01-24T04:45:31.216Z,101165.98
2019-01-24T04:48:01.511Z,101176.23
2019-01-24T04:50:31.715Z,101179.68
2019-01-24T04:53:02.062Z,101175.95
2019-01-24T04:55:32.301Z,101181.39
2019-01-24T04:58:02.483Z,101177.84
2019-01-24T05:00:33.085Z,101183.77
2019-01-24T05:03:03.335Z,101184.95
2019-01-24T05:05:33.532Z,101185.66
2019-01-24T05:08:03.911Z,101186.36
2019-01-24T05:10:34.201Z,101183.97
2019-01-24T05:13:04.506Z,101172.91
2019-01-24T05:15:34.743Z,101173.11
2019-01-24T05:18:05.054Z,101176.16
2019-01-24T05:20:35.213Z,101173.69
2019-01-24T05:23:05.440Z,101156.32
2019-01-24T05:25:35.653Z,101169.95
2019-01-24T05:28:07.215Z,101177.64
2019-01-24T05:30:37.465Z,101180.69
2019-01-24T05:33:07.737Z,101179.23
2019-01-24T05:35:37.907Z,101177.73
2019-01-24T05:38:08.195Z,101173.99
2019-01-24T05:40:38.605Z,101172.81
2019-01-24T05:43:10.376Z,101173.29
2019-01-24T05:45:41.075Z,101177.84
2019-01-24T05:48:11.693Z,101176.96
2019-01-24T05:50:44.320Z,101173.89
2019-01-24T05:53:14.488Z,101171.95
2019-01-24T05:55:44.886Z,101181.23
2019-01-24T05:58:15.212Z,101186.06
2019-01-24T06:00:46.649Z,101185.95
2019-01-24T06:03:19.561Z,101185.08
2019-01-24T06:05:49.835Z,101186.66
2019-01-24T06:08:23.238Z,101193.06
2019-01-24T06:10:53.457Z,101195.63
2019-01-24T06:13:23.710Z,101200.46
2019-01-24T06:15:53.998Z,101191.19
2019-01-24T06:18:24.235Z,101192.95
2019-01-24T06:20:54.522Z,101190.78
2019-01-24T06:23:24.820Z,101196.80
2019-01-24T06:25:55.207Z,101204.01
2019-01-24T06:28:25.421Z,101197.59
2019-01-24T06:30:55.704Z,101200.64
2019-01-24T06:33:25.950Z,101208.51
2019-01-24T06:35:56.181Z,101208.14
2019-01-24T06:38:26.448Z,101209.89
2019-01-24T06:40:56.797Z,101224.11
2019-01-24T06:43:27.041Z,101224.17
2019-01-24T06:45:57.267Z,101227.14
2019-01-24T06:48:27.574Z,101232.27
2019-01-24T06:50:57.852Z,101236.02
2019-01-24T06:53:28.117Z,101247.25
2019-01-24T06:55:58.268Z,101252.31
2019-01-24T06:58:28.516Z,101253.09
2019-01-24T07:00:58.772Z,101255.95
2019-01-24T07:03:28.913Z,101254.59
2019-01-24T07:05:59.172Z,101252.73
2019-01-24T07:08:29.339Z,101260.02
2019-01-24T07:10:59.582Z,101267.50
2019-01-24T07:13:29.826Z,101272.26
2019-01-24T07:16:00.139Z,101277.86
2019-01-24T07:18:30.391Z,101285.08
2019-01-24T07:21:01.000Z,101288.41
2019-01-24T07:23:31.382Z,101291.27
2019-01-24T07:26:01.537Z,101294.64
2019-01-24T07:28:31.785Z,101294.64
2019-01-24T07:31:02.063Z,101296.00
2019-01-24T07:33:32.343Z,101295.05
2019-01-24T07:36:02.776Z,101301.82
2019-01-24T07:38:35.080Z,101302.12
2019-01-24T07:41:05.140Z,101300.66
2019-01-24T07:43:35.404Z,101306.07
2019-01-24T07:46:07.547Z,101306.95
2019-01-24T07:48:38.168Z,101320.06
2019-01-24T07:51:08.441Z,101318.48
2019-01-24T07:53:38.683Z,101321.64
2019-01-24T07:56:08.963Z,101321.85
2019-01-24T07:58:39.243Z,101322.33
2019-01-24T08:01:09.503Z,101323.72
2019-01-24T08:03:39.739Z,101328.45
2019-01-24T08:06:09.988Z,101330.82
2019-01-24T08:08:40.238Z,101332.69
2019-01-24T08:11:10.473Z,101333.97
2019-01-24T08:13:40.726Z,101334.74
2019-01-24T08:16:11.074Z,101338.70
2019-01-24T08:18:41.355Z,101339.69
2019-01-24T08:21:11.716Z,101337.70
2019-01-24T08:23:42.263Z,101332.75
2019-01-24T08:26:12.606Z,101329.13
2019-01-24T08:28:43.126Z,101338.28
2019-01-24T08:31:13.351Z,101343.12
2019-01-24T08:33:43.539Z,101345.09
2019-01-24T08:36:15.635Z,101343.11
2019-01-24T08:38:45.932Z,101354.64
2019-01-24T08:41:16.232Z,101347.92
2019-01-24T08:43:46.597Z,101343.56
2019-01-24T08:46:16.874Z,101344.26
2019-01-24T08:48:47.065Z,101343.19
2019-01-24T08:51:17.311Z,101341.20
2019-01-24T08:53:47.653Z,101345.33
2019-01-24T08:56:18.105Z,101335.75
2019-01-24T08:58:48.476Z,101339.19
2019-01-24T09:01:18.780Z,101329.33
2019-01-24T09:03:49.082Z,101329.61
2019-01-24T09:06:22.651Z,101327.39
2019-01-24T09:08:51.367Z,101326.89
2019-01-24T09:11:21.791Z,101322.91
2019-01-24T09:13:52.108Z,101315.89
2019-01-24T09:16:22.460Z,101317.14
2019-01-24T09:18:52.758Z,101308.91
2019-01-24T09:21:23.044Z,101311.95
2019-01-24T09:23:53.451Z,101309.81
2019-01-24T09:26:23.758Z,101310.86
2019-01-24T09:28:54.081Z,101320.52
2019-01-24T09:31:24.428Z,101319.98
2019-01-24T09:33:54.874Z,101320.24
2019-01-24T09:36:29.171Z,101329.30
2019-01-24T09:38:57.368Z,101332.03
2019-01-24T09:41:28.595Z,101335.89
2019-01-24T09:43:59.016Z,101340.22
2019-01-24T09:46:29.424Z,101345.86
2019-01-24T09:48:59.827Z,101346.33
2019-01-24T09:51:30.140Z,101343.96
2019-01-24T09:54:00.430Z,101351.94
2019-01-24T09:56:30.757Z,101349.33
2019-01-24T09:59:01.488Z,101350.62
2019-01-24T10:01:31.746Z,101349.13
2019-01-24T10:04:02.190Z,101360.39
2019-01-24T10:06:36.237Z,101357.25
2019-01-24T10:09:06.586Z,101362.70
2019-01-24T10:11:36.736Z,101355.20
2019-01-24T10:14:07.479Z,101357.36
2019-01-24T10:16:37.823Z,101354.17
2019-01-24T10:19:08.039Z,101347.58
2019-01-24T10:21:38.349Z,101356.99
2019-01-24T10:24:08.696Z,101353.39
2019-01-24T10:26:39.200Z,101353.15
2019-01-24T10:29:09.663Z,101352.78
2019-01-24T10:31:39.988Z,101360.49
2019-01-24T10:34:10.357Z,101367.49
2019-01-24T10:36:43.103Z,101367.39
2019-01-24T10:39:14.374Z,101363.13
2019-01-24T10:41:44.622Z,101360.09
2019-01-24T10:44:14.938Z,101358.08
2019-01-24T10:46:45.173Z,101359.20
2019-01-24T10:49:15.415Z,101350.20
2019-01-24T10:51:45.698Z,101362.09
2019-01-24T10:54:15.956Z,101358.84
2019-01-24T10:56:46.162Z,101362.39
2019-01-24T10:59:16.408Z,101365.54
2019-01-24T11:01:46.742Z,101367.75
2019-01-24T11:04:17.055Z,101362.81
2019-01-24T11:06:50.104Z,101378.20
2019-01-24T11:09:19.549Z,101377.78
2019-01-24T11:11:49.818Z,101379.55
2019-01-24T11:14:20.046Z,101379.48
2019-01-24T11:16:50.312Z,101378.41
2019-01-24T11:19:20.718Z,101376.91
2019-01-24T11:21:51.043Z,101372.23
2019-01-24T11:24:21.362Z,101386.44
2019-01-24T11:26:51.740Z,101388.03
2019-01-24T11:29:22.021Z,101387.58
2019-01-24T11:31:52.278Z,101392.36
2019-01-24T11:34:22.530Z,101394.21
2019-01-24T11:36:57.033Z,101397.77
2019-01-24T11:39:24.764Z,101401.98
2019-01-24T11:41:55.076Z,101408.41
2019-01-24T11:44:25.277Z,101401.98
2019-01-24T11:46:55.542Z,101403.58
2019-01-24T11:49:25.863Z,101410.52
2019-01-24T11:51:56.208Z,101408.41
2019-01-24T11:54:26.457Z,101418.76
2019-01-24T11:56:56.769Z,101412.95
2019-01-24T11:59:27.076Z,101406.39
2019-01-24T12:01:57.309Z,101411.95
2019-01-24T12:07:04.125Z,101399.28
2019-01-24T12:09:32.232Z,101400.13
2019-01-24T12:12:02.627Z,101399.25
2019-01-24T12:14:32.935Z,101402.80
2019-01-24T12:17:03.236Z,101394.60
2019-01-24T12:19:33.491Z,101401.33
2019-01-24T12:22:03.785Z,101393.06
2019-01-24T12:24:33.921Z,101393.31
2019-01-24T12:27:04.238Z,101386.20
2019-01-24T12:29:34.477Z,101391.14
2019-01-24T12:32:04.863Z,101392.20
2019-01-24T12:34:35.101Z,101393.86
2019-01-24T12:37:11.278Z,101394.37
2019-01-24T12:39:38.638Z,101389.78
2019-01-24T12:42:08.953Z,101381.08
2019-01-24T12:44:39.253Z,101385.03
2019-01-24T12:47:09.527Z,101391.29
2019-01-24T12:49:41.524Z,101382.53
2019-01-24T12:52:11.802Z,101380.42
2019-01-24T12:54:42.057Z,101384.70
2019-01-24T12:57:12.328Z,101385.83
2019-01-24T12:59:42.693Z,101394.19
2019-01-24T13:02:12.961Z,101400.13
2019-01-24T13:04:43.328Z,101408.02
2019-01-24T13:07:18.388Z,101404.78
2019-01-24T13:09:45.525Z,101394.17
2019-01-24T13:12:15.671Z,101396.58
2019-01-24T13:14:45.778Z,101395.30
2019-01-24T13:17:16.047Z,101380.48
2019-01-24T13:19:46.230Z,101384.49
2019-01-24T13:22:16.519Z,101382.11
2019-01-24T13:24:46.761Z,101384.20
2019-01-24T13:27:17.020Z,101380.88
2019-01-24T13:29:47.200Z,101386.91
2019-01-24T13:32:17.484Z,101389.30
2019-01-24T13:34:47.698Z,101393.78
2019-01-24T13:37:17.926Z,101397.60
2019-01-24T13:39:48.163Z,101389.22
2019-01-24T13:42:18.446Z,101391.07
2019-01-24T13:44:48.782Z,101381.66
2019-01-24T13:47:18.908Z,101376.92
2019-01-24T13:49:49.178Z,101368.79
2019-01-24T13:52:19.342Z,101370.27
2019-01-24T13:54:49.722Z,101372.74
2019-01-24T13:57:22.049Z,101375.88
2019-01-24T13:59:54.875Z,101372.28
2019-01-24T14:02:24.383Z,101371.20
2019-01-24T14:04:54.676Z,101370.38
2019-01-24T14:07:24.965Z,101363.79
2019-01-24T14:09:55.204Z,101359.73
2019-01-24T14:12:25.472Z,101361.48
2019-01-24T14:14:55.619Z,101360.81
2019-01-24T14:17:25.871Z,101367.87
2019-01-24T14:19:56.112Z,101366.63
2019-01-24T14:22:26.280Z,101370.73
2019-01-24T14:24:56.591Z,101384.47
2019-01-24T14:27:26.823Z,101393.37
2019-01-24T14:29:57.098Z,101397.73
2019-01-24T14:32:27.633Z,101400.00
2019-01-24T14:34:57.791Z,101390.12
2019-01-24T14:37:28.037Z,101389.70
2019-01-24T14:39:58.239Z,101393.47
2019-01-24T14:42:28.391Z,101395.26
2019-01-24T14:44:58.540Z,101406.83
2019-01-24T14:47:28.854Z,101409.97
2019-01-24T14:49:58.955Z,101413.73
2019-01-24T14:52:29.305Z,101423.14
2019-01-24T14:54:59.584Z,101420.57
2019-01-24T14:57:29.933Z,101419.19
2019-01-24T15:00:00.222Z,101421.35
2019-01-24T15:02:30.541Z,101424.73
2019-01-24T15:05:00.657Z,101427.52
2019-01-24T15:07:31.088Z,101429.52
2019-01-24T15:10:01.278Z,101429.24
2019-01-24T15:12:31.607Z,101434.11
2019-01-24T15:15:01.852Z,101433.44
2019-01-24T15:17:32.200Z,101441.56
2019-01-24T15:20:02.367Z,101441.97
2019-01-24T15:22:32.518Z,101444.53
2019-01-24T15:25:02.718Z,101444.33
2019-01-24T15:27:32.969Z,101446.26
2019-01-24T15:30:03.325Z,101445.88
2019-01-24T15:32:34.316Z,101446.99
2019-01-24T15:35:05.208Z,101443.74
2019-01-24T15:37:35.502Z,101442.08
2019-01-24T15:40:09.122Z,101452.38
2019-01-24T15:42:39.452Z,101448.76
2019-01-24T15:45:12.131Z,101454.97
2019-01-24T15:47:42.301Z,101461.80
2019-01-24T15:50:14.424Z,101457.36
2019-01-24T15:52:44.734Z,101462.30
2019-01-24T15:55:15.297Z,101460.84
2019-01-24T15:57:45.646Z,101471.02
2019-01-24T16:00:29.032Z,101474.99
2019-01-24T16:02:59.354Z,101473.02
2019-01-24T16:05:29.727Z,101477.97
2019-01-24T16:08:01.896Z,101477.17
2019-01-24T16:10:32.311Z,101482.70
2019-01-24T16:13:02.707Z,101482.13
2019-01-24T16:15:35.599Z,101491.33
2019-01-24T16:18:10.410Z,101491.12
2019-01-24T16:20:42.263Z,101493.91
2019-01-24T16:23:12.652Z,101501.80
2019-01-24T16:25:43.128Z,101500.33
2019-01-24T16:28:16.175Z,101498.45
2019-01-24T16:30:46.591Z,101506.94
2019-01-24T16:33:17.005Z,101507.44
2019-01-24T16:35:47.333Z,101507.33
2019-01-24T16:38:20.615Z,101514.74
2019-01-24T16:40:50.907Z,101515.33
2019-01-24T16:43:24.117Z,101511.30
2019-01-24T16:45:54.491Z,101511.48
2019-01-24T16:48:24.792Z,101515.63
2019-01-24T16:50:55.041Z,101529.15
2019-01-24T16:53:25.419Z,101518.99
2019-01-24T16:55:59.492Z,101522.84
2019-01-24T16:58:29.768Z,101527.96
2019-01-24T17:01:13.520Z,101536.72
2019-01-24T17:03:45.545Z,101541.95
2019-01-24T17:06:15.875Z,101543.13
2019-01-24T17:08:47.497Z,101540.48
2019-01-24T17:11:17.850Z,101543.81
2019-01-24T17:13:48.132Z,101552.79
2019-01-24T17:16:18.505Z,101553.08
2019-01-24T17:18:48.925Z,101559.41
2019-01-24T17:21:20.920Z,101559.41
2019-01-24T17:23:51.165Z,101556.34
2019-01-24T17:26:21.376Z,101554.97
2019-01-24T17:28:51.626Z,101563.63
2019-01-24T17:31:21.908Z,101564.23
2019-01-24T17:33:52.255Z,101554.04
2019-01-24T17:36:22.573Z,101564.70
2019-01-24T17:38:52.782Z,101569.06
2019-01-24T17:41:23.150Z,101573.68
2019-01-24T17:43:55.013Z,101577.53
2019-01-24T17:46:25.786Z,101581.77
2019-01-24T17:48:58.378Z,101591.75
2019-01-24T17:51:29.114Z,101595.08
2019-01-24T17:53:59.510Z,101604.45
2019-01-24T17:56:29.869Z,101600.13
2019-01-24T17:59:00.237Z,101602.58
2019-01-24T18:01:30.603Z,101606.31
2019-01-24T18:04:00.903Z,101605.31
2019-01-24T18:06:31.248Z,101599.30
2019-01-24T18:09:01.597Z,101598.02
2019-01-24T18:11:31.874Z,101599.23
2019-01-24T18:14:03.516Z,101605.92
2019-01-24T18:16:33.879Z,101610.53
2019-01-24T18:19:04.729Z,101614.89
2019-01-24T18:21:35.085Z,101621.31
2019-01-24T18:24:05.849Z,101623.47
2019-01-24T18:26:36.455Z,101622.67
2019-01-24T18:29:07.507Z,101622.19
2019-01-24T18:31:38.115Z,101630.56
2019-01-24T18:34:17.811Z,101629.59
2019-01-24T18:36:54.884Z,101637.49
2019-01-24T18:39:25.640Z,101640.58
2019-01-24T18:41:56.237Z,101624.95
2019-01-24T18:44:26.658Z,101630.48
2019-01-24T18:46:57.188Z,101632.56
2019-01-24T18:49:27.872Z,101642.99
2019-01-24T18:51:58.545Z,101645.07
2019-01-24T18:54:29.309Z,101640.88
2019-01-24T18:56:59.930Z,101640.80
2019-01-24T18:59:46.279Z,101642.24
2019-01-24T19:02:17.043Z,101642.92
2019-01-24T19:04:47.527Z,101635.52
2019-01-24T19:07:18.111Z,101637.36
2019-01-24T19:09:49.250Z,101639.84
2019-01-24T19:12:19.894Z,101649.81
2019-01-24T19:14:50.494Z,101655.03
2019-01-24T19:17:21.129Z,101658.11
2019-01-24T19:19:52.243Z,101655.27
2019-01-24T19:22:22.921Z,101652.78
2019-01-24T19:24:53.527Z,101653.70
2019-01-24T19:27:24.159Z,101647.17
2019-01-24T19:29:54.758Z,101647.17
2019-01-24T19:32:26.235Z,101657.02
2019-01-24T19:37:47.142Z,101661.75
2019-01-24T19:40:22.006Z,101667.28
2019-01-24T19:42:52.667Z,101675.86
2019-01-24T19:45:24.811Z,101675.86
2019-01-24T19:47:55.446Z,101666.52
2019-01-24T19:50:28.243Z,101664.60
2019-01-24T19:52:59.254Z,101655.27
2019-01-24T19:55:29.862Z,101645.77
2019-01-24T19:58:00.342Z,101647.33
2019-01-24T20:00:32.516Z,101646.45
2019-01-24T20:03:03.399Z,101655.42
2019-01-24T20:05:34.079Z,101663.52
2019-01-24T20:08:04.678Z,101657.50
2019-01-24T20:10:35.332Z,101657.39
2019-01-24T20:13:12.889Z,101660.63
2019-01-24T20:15:43.556Z,101671.61
2019-01-24T20:18:14.842Z,101678.02
2019-01-24T20:20:45.470Z,101677.89
2019-01-24T20:23:19.862Z,101673.53
2019-01-24T20:25:50.629Z,101670.61
2019-01-24T20:28:21.332Z,101667.44
2019-01-24T20:30:52.069Z,101666.48
2019-01-24T20:33:22.786Z,101668.25
2019-01-24T20:35:57.578Z,101672.69
2019-01-24T20:38:29.027Z,101672.20
2019-01-24T20:40:59.682Z,101674.17
2019-01-24T20:43:35.495Z,101678.22
2019-01-24T20:46:07.485Z,101675.25
2019-01-24T20:48:41.032Z,101671.69
2019-01-24T20:51:11.543Z,101674.17
2019-01-24T20:53:43.474Z,101682.83
2019-01-24T20:56:14.196Z,101682.59
2019-01-24T20:58:44.905Z,101679.26
2019-01-24T21:01:23.583Z,101672.21
2019-01-24T21:03:55.523Z,101668.16
2019-01-24T21:06:28.355Z,101673.69
2019-01-24T21:08:58.817Z,101670.73
2019-01-24T21:11:29.452Z,101671.61
2019-01-24T21:14:00.541Z,101670.73
2019-01-24T21:16:31.774Z,101674.97
2019-01-24T21:19:02.475Z,101683.14
2019-01-24T21:21:33.042Z,101672.20
2019-01-24T21:24:03.731Z,101674.09
2019-01-24T21:26:34.318Z,101677.81
2019-01-24T21:29:05.503Z,101686.39
2019-01-24T21:31:37.350Z,101693.98
2019-01-24T21:34:08.054Z,101694.08
2019-01-24T21:36:39.807Z,101689.06
2019-01-24T21:39:11.059Z,101690.47
2019-01-24T21:41:41.788Z,101698.24
2019-01-24T21:44:12.294Z,101689.39
2019-01-24T21:46:43.026Z,101684.83
2019-01-24T21:49:13.797Z,101686.63
2019-01-24T21:51:44.307Z,101693.91
2019-01-24T21:54:14.818Z,101697.04
2019-01-24T21:56:45.376Z,101699.88
2019-01-24T21:59:15.976Z,101712.77
2019-01-24T22:01:46.530Z,101721.73
2019-01-24T22:04:19.397Z,101719.73
2019-01-24T22:06:49.989Z,101713.88
2019-01-24T22:09:21.890Z,101709.82
2019-01-24T22:11:58.888Z,101707.98
2019-01-24T22:14:29.416Z,101711.55
2019-01-24T22:17:00.113Z,101717.16
2019-01-24T22:19:30.843Z,101722.77
2019-01-24T22:22:01.519Z,101722.50
2019-01-24T22:24:32.345Z,101732.27
2019-01-24T22:27:03.017Z,101726.34
2019-01-24T22:29:33.747Z,101728.35
2019-01-24T22:32:04.725Z,101735.16
2019-01-24T22:34:35.270Z,101738.72
2019-01-24T22:37:07.420Z,101724.30
2019-01-24T22:39:47.601Z,101732.39
2019-01-24T22:42:18.400Z,101745.01
2019-01-24T22:44:49.068Z,101743.00
2019-01-24T22:47:19.865Z,101747.09
2019-01-24T22:49:50.728Z,101746.57
2019-01-24T22:52:21.593Z,101742.39
2019-01-24T22:54:52.191Z,101750.48
2019-01-24T22:57:22.609Z,101751.77
2019-01-24T22:59:52.988Z,101748.03
2019-01-24T23:02:28.317Z,101748.41
2019-01-24T23:04:58.691Z,101742.80
2019-01-24T23:07:29.065Z,101745.91
2019-01-24T23:09:59.441Z,101743.86
2019-01-24T23:12:29.844Z,101743.34
2019-01-24T23:15:00.254Z,101745.91
2019-01-24T23:17:30.709Z,101747.38
2019-01-24T23:20:01.116Z,101742.89
2019-01-24T23:22:31.534Z,101740.23
2019-01-24T23:25:05.413Z,101734.11
2019-01-24T23:27:35.781Z,101733.44
2019-01-24T23:30:08.360Z,101742.80
2019-01-24T23:32:38.862Z,101738.56
2019-01-24T23:35:12.579Z,101737.00
2019-01-24T23:38:00.297Z,101735.72
2019-01-24T23:40:30.584Z,101738.77
2019-01-24T23:43:00.952Z,101738.28
2019-01-24T23:45:31.382Z,101736.73
2019-01-24T23:48:01.730Z,101732.88
2019-01-24T23:50:32.047Z,101736.20
2019-01-24T23:53:02.409Z,101727.16
2019-01-24T23:55:33.475Z,101723.98
2019-01-24T23:58:04.000Z,101723.86
